createdAt,value
2022-12-04T19:00:53.045Z,99768.28
2022-12-04T19:01:57.533Z,99765.16
2022-12-04T19:03:01.672Z,99771.05
2022-12-04T19:04:05.752Z,99771.97
2022-12-04T19:05:09.863Z,99769.36
2022-12-04T19:06:14.117Z,99771.67
2022-12-04T19:07:18.374Z,99774.42
2022-12-04T19:08:22.455Z,99774.72
2022-12-04T19:10:11.368Z,99768.08
2022-12-04T19:11:15.703Z,99773.45
2022-12-04T19:12:19.780Z,99763.9
2022-12-04T19:13:23.836Z,99765.28
2022-12-04T19:14:27.902Z,99767.55
2022-12-04T19:15:32.025Z,99771.58
2022-12-04T19:16:36.232Z,99767.97
2022-12-04T19:17:40.467Z,99765.8
2022-12-04T19:18:44.565Z,99763.2
2022-12-04T19:19:48.655Z,99760.5
2022-12-04T19:20:52.754Z,99758.64
2022-12-04T19:21:56.816Z,99761.5
2022-12-04T19:23:00.889Z,99756.66
2022-12-04T19:24:04.969Z,99759.88
2022-12-04T19:25:09.053Z,99763.08
2022-12-04T19:26:13.127Z,99763.08
2022-12-04T19:27:17.193Z,99753.34
2022-12-04T19:28:21.257Z,99758.41
2022-12-04T19:29:25.322Z,99753.41
2022-12-04T19:30:29.378Z,99765.23
2022-12-04T19:31:33.669Z,99757.62
2022-12-04T19:32:37.866Z,99764.43
2022-12-04T19:33:41.948Z,99760.41
2022-12-04T19:34:46.009Z,99755.56
2022-12-04T19:35:50.093Z,99771.88
2022-12-04T19:36:54.278Z,99780.75
2022-12-04T19:37:58.404Z,99778.07
2022-12-04T19:39:02.466Z,99783.84
2022-12-04T19:40:06.531Z,99770.08
2022-12-04T19:41:10.617Z,99769.8
2022-12-04T19:42:14.728Z,99772.47
2022-12-04T19:43:18.876Z,99766.7
2022-12-04T19:44:52.934Z,99778.17
2022-12-04T19:45:57.215Z,99779.52
2022-12-04T19:47:01.471Z,99770.16
2022-12-04T19:48:05.537Z,99780.11
2022-12-04T19:49:09.600Z,99771.2
2022-12-04T19:50:13.699Z,99762.73
2022-12-04T19:51:17.778Z,99774.93
2022-12-04T19:52:21.859Z,99775.34
2022-12-04T19:53:26.088Z,99776.38
2022-12-04T19:54:30.171Z,99770.59
2022-12-04T19:55:34.256Z,99775.11
2022-12-04T19:56:38.362Z,99774.29
2022-12-04T19:57:42.432Z,99779.08
2022-12-04T19:58:46.507Z,99782.44
2022-12-04T19:59:50.586Z,99785.13
2022-12-04T20:00:54.832Z,99788.7
2022-12-04T20:01:59.404Z,99787.87
2022-12-04T20:03:03.913Z,99777.1
2022-12-04T20:04:08.105Z,99783.44
2022-12-04T20:05:12.213Z,99788.91
2022-12-04T20:06:16.303Z,99783.96
2022-12-04T20:07:20.369Z,99782.68
2022-12-04T20:08:24.447Z,99781.98
2022-12-04T20:09:28.543Z,99790.33
2022-12-04T20:10:32.618Z,99788.16
2022-12-04T20:11:36.670Z,99790.91
2022-12-04T20:12:40.719Z,99793.63
2022-12-04T20:13:44.794Z,99789.56
2022-12-04T20:14:48.867Z,99794.64
2022-12-04T20:15:52.928Z,99791.95
2022-12-04T20:16:57.104Z,99791.95
2022-12-04T20:18:01.295Z,99780.77
2022-12-04T20:19:05.363Z,99784.05
2022-12-04T20:20:09.445Z,99789.38
2022-12-04T20:21:13.531Z,99788.45
2022-12-04T20:22:17.616Z,99780.87
2022-12-04T20:23:21.694Z,99784.61
2022-12-04T20:24:25.779Z,99784.61
2022-12-04T20:25:29.859Z,99797.91
2022-12-04T20:26:33.927Z,99789.52
2022-12-04T20:27:38.018Z,99794.41
2022-12-04T20:28:42.091Z,99788.3
2022-12-04T20:29:46.183Z,99780.13
2022-12-04T20:30:53.129Z,99777.16
2022-12-04T20:31:57.325Z,99779.66
2022-12-04T20:33:01.396Z,99782.94
2022-12-04T20:34:05.443Z,99777.45
2022-12-04T20:35:09.516Z,99778.04
2022-12-04T20:36:13.592Z,99779.53
2022-12-04T20:37:17.668Z,99784.79
2022-12-04T20:38:21.765Z,99776.34
2022-12-04T20:39:25.820Z,99771.16
2022-12-04T20:40:29.901Z,99770.05
2022-12-04T20:41:33.984Z,99772.42
2022-12-04T20:42:38.070Z,99774.58
2022-12-04T20:43:42.128Z,99773.2
2022-12-04T20:44:46.201Z,99776.44
2022-12-04T20:45:50.475Z,99773.77
2022-12-04T20:46:54.688Z,99774.17
2022-12-04T20:47:58.758Z,99760.72
2022-12-04T20:49:02.855Z,99771.56
2022-12-04T20:50:06.913Z,99769.3
2022-12-04T20:51:10.997Z,99750.92
2022-12-04T20:52:15.057Z,99744.3
2022-12-04T20:53:19.146Z,99752.72
2022-12-04T20:54:23.233Z,99745.09
2022-12-04T20:55:27.310Z,99748.3
2022-12-04T20:56:31.385Z,99752.62
2022-12-04T20:57:35.465Z,99758.5
2022-12-04T20:58:39.531Z,99759.43
2022-12-04T20:59:43.576Z,99763.22
2022-12-04T21:00:47.636Z,99771.08
2022-12-04T21:01:52.020Z,99769.3
2022-12-04T21:02:56.469Z,99766.95
2022-12-04T21:04:00.660Z,99760.44
2022-12-04T21:05:04.750Z,99758.09
2022-12-04T21:06:08.824Z,99756.75
2022-12-04T21:07:12.931Z,99754.43
2022-12-04T21:08:17.210Z,99760.25
2022-12-04T21:09:21.466Z,99757.86
2022-12-04T21:10:25.565Z,99762.11
2022-12-04T21:11:29.644Z,99753.85
2022-12-04T21:12:36.372Z,99769.04
2022-12-04T21:13:46.514Z,99767.36
2022-12-04T21:14:52.674Z,99766.62
2022-12-04T21:15:56.868Z,99766.02
2022-12-04T21:17:01.035Z,99764.79
2022-12-04T21:18:05.126Z,99766.54
2022-12-04T21:19:09.200Z,99775.82
2022-12-04T21:20:13.273Z,99774.48
2022-12-04T21:21:17.351Z,99769.12
2022-12-04T21:22:21.508Z,99763.34
2022-12-04T21:23:25.603Z,99774.48
2022-12-04T21:24:29.695Z,99755.59
2022-12-04T21:25:33.767Z,99762.41
2022-12-04T21:26:37.928Z,99760.02
2022-12-04T21:27:42.013Z,99761.48
2022-12-04T21:28:46.079Z,99756.59
2022-12-04T21:29:50.156Z,99754.55
2022-12-04T21:30:54.413Z,99757.28
2022-12-04T21:31:58.575Z,99754.53
2022-12-04T21:33:02.656Z,99753.55
2022-12-04T21:34:06.745Z,99752.09
2022-12-04T21:35:10.804Z,99760.71
2022-12-04T21:36:14.873Z,99755.94
2022-12-04T21:37:18.957Z,99749.94
2022-12-04T21:38:23.059Z,99761.95
2022-12-04T21:39:27.149Z,99761.02
2022-12-04T21:40:31.406Z,99762.88
2022-12-04T21:41:39.540Z,99754.89
2022-12-04T21:42:43.622Z,99768.23
2022-12-04T21:43:47.704Z,99764.73
2022-12-04T21:44:51.771Z,99776.28
2022-12-04T21:45:55.970Z,99768.7
2022-12-04T21:47:00.337Z,99770.27
2022-12-04T21:48:04.474Z,99772.13
2022-12-04T21:49:08.535Z,99783.32
2022-12-04T21:50:12.594Z,99778.03
2022-12-04T21:51:57.121Z,99774.02
2022-12-04T21:53:02.649Z,99733.7
2022-12-04T21:54:06.721Z,99774.94
2022-12-04T21:55:10.809Z,99776.61
2022-12-04T21:56:14.887Z,99765.09
2022-12-04T21:57:19.029Z,99774.86
2022-12-04T21:58:23.115Z,99764.39
2022-12-04T21:59:27.181Z,99766.3
2022-12-04T22:00:31.262Z,99766.2
2022-12-04T22:01:35.519Z,99766.84
2022-12-04T22:02:39.992Z,99763.7
2022-12-04T22:03:44.270Z,99762.92
2022-12-04T22:04:48.367Z,99767.77
2022-12-04T22:05:52.468Z,99760.65
2022-12-04T22:06:56.545Z,99759.67
2022-12-04T22:08:00.755Z,99759.08
2022-12-04T22:09:04.913Z,99755.34
2022-12-04T22:10:11.986Z,99761.02
2022-12-04T22:11:16.074Z,99758.97
2022-12-04T22:12:50.468Z,99758.03
2022-12-04T22:13:54.792Z,99754.12
2022-12-04T22:14:58.880Z,99747.9
2022-12-04T22:16:03.041Z,99758.77
2022-12-04T22:17:07.277Z,99753.67
2022-12-04T22:18:11.367Z,99763.44
2022-12-04T22:19:15.457Z,99755.76
2022-12-04T22:20:19.547Z,99763.52
2022-12-04T22:21:23.632Z,99769.29
2022-12-04T22:22:27.722Z,99759.91
2022-12-04T22:23:31.803Z,99765.19
2022-12-04T22:24:35.883Z,99755.66
2022-12-04T22:25:39.967Z,99758.97
2022-12-04T22:26:44.111Z,99761.4
2022-12-04T22:27:48.526Z,99768.52
2022-12-04T22:28:53.104Z,99767.17
2022-12-04T22:29:57.188Z,99763
2022-12-04T22:31:01.437Z,99779.98
2022-12-04T22:32:05.687Z,99776.97
2022-12-04T22:33:09.801Z,99777.97
2022-12-04T22:34:13.870Z,99771.27
2022-12-04T22:35:17.964Z,99769.11
2022-12-04T22:36:22.033Z,99772.08
2022-12-04T22:37:26.125Z,99769.7
2022-12-04T22:38:30.215Z,99767.64
2022-12-04T22:39:34.290Z,99771.89
2022-12-04T22:40:38.398Z,99765.27
2022-12-04T22:41:42.489Z,99767.77
2022-12-04T22:42:46.578Z,99765.67
2022-12-04T22:43:50.693Z,99766.42
2022-12-04T22:44:54.759Z,99763.23
2022-12-04T22:45:58.828Z,99751.14
2022-12-04T22:47:03.051Z,99753.02
2022-12-04T22:48:07.258Z,99748.58
2022-12-04T22:49:11.330Z,99734.83
2022-12-04T22:50:15.409Z,99739.2
2022-12-04T22:51:19.556Z,99739.48
2022-12-04T22:52:23.633Z,99735.13
2022-12-04T22:53:27.721Z,99739.53
2022-12-04T22:54:31.800Z,99737.68
2022-12-04T22:55:35.860Z,99732.83
2022-12-04T22:56:39.967Z,99731.03
2022-12-04T22:57:44.039Z,99743.55
2022-12-04T22:58:48.141Z,99736.11
2022-12-04T22:59:52.238Z,99746.31
2022-12-04T23:00:56.333Z,99739.2
2022-12-04T23:02:00.406Z,99729.28
2022-12-04T23:03:04.689Z,99730.16
2022-12-04T23:04:08.809Z,99738.61
2022-12-04T23:05:13.051Z,99733.66
2022-12-04T23:06:17.322Z,99723.81
2022-12-04T23:07:21.382Z,99734.58
2022-12-04T23:08:25.445Z,99735.52
2022-12-04T23:09:29.525Z,99733.73
2022-12-04T23:10:33.630Z,99729.7
2022-12-04T23:11:37.683Z,99736
2022-12-04T23:12:41.768Z,99738.38
2022-12-04T23:13:45.814Z,99737.33
2022-12-04T23:14:49.913Z,99743.1
2022-12-04T23:15:54.135Z,99740.2
2022-12-04T23:16:58.502Z,99744.21
2022-12-04T23:18:02.702Z,99747.02
2022-12-04T23:19:06.804Z,99747.53
2022-12-04T23:20:10.855Z,99747.38
2022-12-04T23:21:14.937Z,99744.11
2022-12-04T23:22:19.003Z,99752.26
2022-12-04T23:23:23.073Z,99740.08
2022-12-04T23:24:27.151Z,99741.78
2022-12-04T23:25:31.224Z,99741.94
2022-12-04T23:26:35.323Z,99736.24
2022-12-04T23:27:39.390Z,99736.23
2022-12-04T23:28:43.482Z,99735.09
2022-12-04T23:29:55.042Z,99737.13
2022-12-04T23:30:59.350Z,99731.05
2022-12-04T23:32:03.890Z,99735.38
2022-12-04T23:33:08.131Z,99746.25
2022-12-04T23:34:12.185Z,99747.55
2022-12-04T23:35:16.234Z,99746.33
2022-12-04T23:36:20.281Z,99739.34
2022-12-04T23:37:24.346Z,99752.31
2022-12-04T23:38:28.410Z,99744.45
2022-12-04T23:39:32.548Z,99744.22
2022-12-04T23:40:36.619Z,99745.45
2022-12-04T23:41:40.727Z,99745.23
2022-12-04T23:42:44.855Z,99749.41
2022-12-04T23:43:48.916Z,99751.98
2022-12-04T23:44:52.986Z,99744.94
2022-12-04T23:45:57.058Z,99746.05
2022-12-04T23:47:01.382Z,99751.34
2022-12-04T23:48:05.605Z,99744.58
2022-12-04T23:49:09.681Z,99750
2022-12-04T23:50:13.740Z,99745.11
2022-12-04T23:51:17.824Z,99744.41
2022-12-04T23:52:21.985Z,99750.17
2022-12-04T23:53:26.065Z,99747.6
2022-12-04T23:54:30.137Z,99751
2022-12-04T23:55:35.737Z,99748.79
2022-12-04T23:56:39.821Z,99745.41
2022-12-04T23:57:43.902Z,99749.48
2022-12-04T23:58:47.991Z,99742.42
2022-12-04T23:59:52.076Z,99732.17
